Flight Track Log - Related Links

Times and Time Zones

All times are in EDT time to prevent confusion due to time zone crossing. See the CCA4355 flight status page for this flight to view local times or setup timezone preferences in your user account.

Time Position Orientation Groundspeed Altitude Reporting Facility
EDT Latitude Longitude Course Direction KTS MPH feet Rate Location/Type
Wed 04:46:00 AM 31.0667 107.6868 146° Southeast  Level Estimated
Wed 04:47:00 AM 30.9889 107.7489 146° Southeast  Level Estimated
Wed 04:48:00 AM 30.9110 107.8108 146° Southeast  Level Estimated
Wed 04:49:00 AM 30.8331 107.8727 146° Southeast  Level Estimated
Wed 04:50:00 AM 30.7552 107.9344 146° Southeast  Level Estimated
Wed 04:51:00 AM 30.6772 107.9961 146° Southeast  Level Estimated
Wed 04:52:00 AM 30.5993 108.0577 146° Southeast  Level Estimated
Wed 04:53:00 AM 30.5213 108.1191 146° Southeast  Level Estimated
Wed 04:54:00 AM 30.4432 108.1805 146° Southeast  Level Estimated
Wed 04:55:00 AM 30.3652 108.2417 146° Southeast  Level Estimated
Wed 04:56:00 AM 30.2871 108.3029 146° Southeast  Level Estimated
Wed 04:57:00 AM 30.2090 108.3640 146° Southeast  Level Estimated
Wed 04:58:00 AM 30.1308 108.4249 146° Southeast  Level Estimated
Wed 04:59:00 AM 30.0526 108.4858 146° Southeast  Level Estimated
Wed 05:00:00 AM 29.9744 108.5466 146° Southeast  Level Estimated
Wed 05:01:00 AM 29.8962 108.6073 146° Southeast  Level Estimated
Wed 05:02:00 AM 29.8179 108.6679 146° Southeast  Level Estimated
Wed 05:03:00 AM 29.7397 108.7284 146° Southeast  Level Estimated
Wed 05:04:00 AM 29.6613 108.7888 146° Southeast  Level Estimated
Wed 05:05:00 AM 29.5830 108.8491 146° Southeast  Level Estimated
Wed 05:06:00 AM 29.5046 108.9093 146° Southeast  Level Estimated
Wed 05:07:00 AM 29.4262 108.9694 146° Southeast  Level Estimated
Wed 05:08:00 AM 29.3478 109.0294 146° Southeast  Level Estimated
Wed 05:09:00 AM 29.2694 109.0894 146° Southeast  Level Estimated
Wed 05:10:00 AM 29.1909 109.1492 146° Southeast  Level Estimated
Wed 05:11:00 AM 29.1124 109.2090 146° Southeast  Level Estimated
Wed 05:12:00 AM 29.0338 109.2686 146° Southeast  Level Estimated
Wed 05:13:00 AM 28.9553 109.3282 146° Southeast  Level Estimated
Wed 05:14:00 AM 28.8767 109.3877 146° Southeast  Level Estimated
Wed 05:15:00 AM 28.7981 109.4471 146° Southeast  Level Estimated
Wed 05:16:00 AM 28.7195 109.5064 147° Southeast  Level Estimated
Wed 05:17:00 AM 28.6408 109.5656 147° Southeast  Level Estimated
Wed 05:18:00 AM 28.5621 109.6247 147° Southeast  Level Estimated
Wed 05:19:00 AM 28.4834 109.6837 147° Southeast  Level Estimated
Wed 05:20:00 AM 28.4047 109.7427 147° Southeast  Level Estimated
Wed 05:21:00 AM 28.3259 109.8015 147° Southeast  Level Estimated
Wed 05:22:00 AM 28.2471 109.8603 147° Southeast  Level Estimated
Wed 05:23:00 AM 28.1683 109.9190 147° Southeast  Level Estimated
Wed 05:24:00 AM 28.0895 109.9776 147° Southeast  Level Estimated
Wed 05:25:00 AM 28.0106 110.0361 147° Southeast  Level Estimated
Wed 05:26:00 AM 27.9317 110.0945 147° Southeast  Level Estimated
Wed 05:27:00 AM 27.8528 110.1529 147° Southeast  Level Estimated
Wed 05:28:00 AM 27.7739 110.2111 147° Southeast  Level Estimated
Wed 05:29:00 AM 27.6949 110.2693 147° Southeast  Level Estimated
Wed 05:30:00 AM 27.6159 110.3274 147° Southeast  Level Estimated
Wed 05:31:00 AM 27.5369 110.3854 147° Southeast  Level Estimated
Wed 05:32:00 AM 27.4579 110.4433 147° Southeast  Level Estimated
Wed 05:33:00 AM 27.3788 110.5011 147° Southeast  Level Estimated
Wed 05:34:00 AM 27.2997 110.5589 147° Southeast  Level Estimated
Wed 05:35:00 AM 27.2206 110.6166 147° Southeast  Level Estimated
Wed 05:36:00 AM 27.1415 110.6741 147° Southeast  Level Estimated
Wed 05:37:00 AM 27.0624 110.7317 147° Southeast  Level Estimated
Wed 05:38:00 AM 26.9832 110.7891 147° Southeast  Level Estimated
Wed 05:39:00 AM 26.9040 110.8464 147° Southeast  Level Estimated
Wed 05:40:00 AM 26.8248 110.9037 147° Southeast  Level Estimated
Wed 05:41:00 AM 26.7455 110.9609 147° Southeast  Level Estimated
Wed 05:42:00 AM 26.6663 111.0180 147° Southeast  Level Estimated
Wed 05:43:00 AM 26.5870 111.0750 147° Southeast  Level Estimated
Wed 05:44:00 AM 26.5077 111.1320 147° Southeast  Level Estimated
Wed 05:45:00 AM 26.4283 111.1889 147° Southeast  Level Estimated
Wed 05:46:00 AM 26.3490 111.2457 147° Southeast  Level Estimated
Wed 05:47:00 AM 26.2696 111.3024 147° Southeast  Level Estimated
Wed 05:48:00 AM 26.1902 111.3590 147° Southeast  Level Estimated
Wed 05:49:00 AM 26.1108 111.4156 147° Southeast  Level Estimated
Wed 05:50:00 AM 26.0313 111.4720 147° Southeast  Level Estimated
Wed 05:51:00 AM 25.9519 111.5285 147° Southeast  Level Estimated
Wed 05:52:00 AM 25.8724 111.5848 147° Southeast  Level Estimated
Wed 05:53:00 AM 25.7929 111.6410 147° Southeast  Level Estimated
Wed 05:54:00 AM 25.7133 111.6972 148° Southeast  Level Estimated
Wed 05:55:00 AM 25.6338 111.7533 148° Southeast  Level Estimated
Wed 05:56:00 AM 25.5542 111.8093 148° Southeast  Level Estimated
Wed 05:57:00 AM 25.4746 111.8653 148° Southeast  Level Estimated
Wed 05:58:00 AM 25.3950 111.9212 148° Southeast  Level Estimated
Wed 05:59:00 AM 25.3153 111.9770 148° Southeast  Level Estimated
Wed 05:59:42 AM 24.4270 110.5110 148° Southeast 434 499 35,100  Level FlightAware ADS-B
Wed 06:00:00 AM 25.2357 112.0327 148° Southeast  Level Estimated
Wed 06:00:22 AM 24.3630 110.5520 150° Southeast 434 499 35,100  Level FlightAware ADS-B
Wed 06:01:07 AM 24.2840 110.6130 145° Southeast 441 507 35,100  Level FlightAware ADS-B
Wed 06:01:57 AM 24.2070 110.6800 142° Southeast 439 505 35,100  Level FlightAware ADS-B
Wed 06:02:52 AM 24.1290 110.7700 134° Southeast 449 517 35,100  Level FlightAware ADS-B
Wed 06:03:42 AM 24.0600 110.8570 131° Southeast 447 514 35,100 -780 Level FlightAware ADS-B
Wed 06:04:32 AM 23.9880 110.9460 132° Southeast 446 513 33,800 -1,725 Descending FlightAware ADS-B
Wed 06:05:02 AM 23.9480 110.9940 132° Southeast 446 513 32,800 -706 Descending FlightAware ADS-B
Wed 06:05:57 AM 23.8840 111.0750 131° Southeast 446 513 32,800  Level FlightAware ADS-B
Wed 06:06:37 AM 23.8380 111.1330 131° Southeast 446 513 32,800 -3,318 Level FlightAware ADS-B
Wed 06:07:22 AM 23.7550 111.2300 133° Southeast 437 503 28,100 -3,900 Descending FlightAware ADS-B
Wed 06:07:57 AM 23.7140 111.2820 131° Southeast 433 498 27,600 -825 Descending FlightAware ADS-B
Wed 06:08:42 AM 23.6590 111.3720 124° Southeast 452 520 27,000 -975 Descending FlightAware ADS-B
Wed 06:09:17 AM 23.6240 111.4360 121° Southeast 456 525 26,300 -1,341 Descending FlightAware ADS-B
Wed 06:10:07 AM 23.5700 111.5390 120° Southeast 452 520 25,100 -1,453 Descending FlightAware ADS-B
Wed 06:10:52 AM 23.5230 111.6310 119° Southeast 446 513 24,000 -1,412 Descending FlightAware ADS-B
Wed 06:11:32 AM 23.4830 111.7050 121° Southeast 421 484 23,100 -1,500 Descending FlightAware ADS-B
Wed 06:12:12 AM 23.4410 111.7750 123° Southeast 402 463 22,000 -1,553 Descending FlightAware ADS-B
Wed 06:12:57 AM 23.3710 111.8200 149° Southeast 388 447 20,900 -1,400 Descending FlightAware ADS-B
Wed 06:13:12 AM 23.3490 111.8400 140° Southeast 395 455 20,600 -1,309 Descending FlightAware ADS-B
Wed 06:13:52 AM 23.3120 111.9090 120° Southeast 405 466 19,700 -1,280 Descending FlightAware ADS-B
Wed 06:14:27 AM 23.2850 111.9730 115° Southeast 405 466 19,000 -1,271 Descending FlightAware ADS-B
Wed 06:15:17 AM 23.2470 112.0640 114° Southeast 399 459 17,900 -1,333 Descending FlightAware ADS-B
Wed 06:15:57 AM 23.2170 112.1360 114° Southeast 395 455 17,000 -1,275 Descending FlightAware ADS-B
Wed 06:16:37 AM 23.1860 112.2090 115° Southeast 392 451 16,200 -1,271 Descending FlightAware ADS-B
Wed 06:17:22 AM 23.1530 112.2900 114° Southeast 385 443 15,200 -1,341 Descending FlightAware ADS-B
Wed 06:18:02 AM 23.1230 112.3600 115° Southeast 377 434 14,300 -1,341 Descending FlightAware ADS-B
Wed 06:18:47 AM 23.0920 112.4350 114° Southeast 366 421 13,300 -1,341 Descending FlightAware ADS-B
Wed 06:19:27 AM 23.0700 112.5050 109° East 370 426 12,400 -1,263 Descending FlightAware ADS-B
Wed 06:20:22 AM 23.0700 112.6070 90° East 368 423 11,300 -1,011 Descending FlightAware ADS-B
Wed 06:21:02 AM 23.0690 112.6820 91° East 363 418 10,800 -353 Descending FlightAware ADS-B
Wed 06:21:47 AM 23.0690 112.7610 90° East 362 417 10,800  Level FlightAware ADS-B
Wed 06:22:27 AM 23.0680 112.8330 91° East 346 398 10,800  Level FlightAware ADS-B
Wed 06:23:12 AM 23.0680 112.9070 90° East 318 366 10,800  Level FlightAware ADS-B
Wed 06:23:52 AM 23.0670 112.9720 91° East 316 364 10,800  Level FlightAware ADS-B
Wed 06:24:37 AM 23.0670 113.0430 90° East 316 364 10,800 -240 Level FlightAware ADS-B
Wed 06:25:32 AM 23.0830 113.1230 78° East 321 369 10,400 -686 Descending FlightAware ADS-B
Wed 06:25:47 AM 23.1050 113.1360 29° Northeast 316 364 10,000 -1,500 Descending FlightAware ADS-B
Wed 06:26:12 AM 23.1400 113.1390 North 312 359 9,400 -1,091 Descending FlightAware ADS-B
Wed 06:26:42 AM 23.1840 113.1410 North 303 349 9,000 -436 Descending FlightAware ADS-B
Wed 06:27:07 AM 23.2180 113.1470 North 302 348 9,000 109 Level FlightAware ADS-B
Wed 06:27:37 AM 23.2570 113.1550 11° North 300 345 9,100 100 Climbing FlightAware ADS-B
Wed 06:28:07 AM 23.2970 113.1630 10° North 275 316 9,100  Level FlightAware ADS-B
Wed 06:28:32 AM 23.3290 113.1700 11° North 270 311 9,100 -436 Level FlightAware ADS-B
Wed 06:29:02 AM 23.3660 113.1780 11° North 272 313 8,700 -873 Descending FlightAware ADS-B
Wed 06:29:27 AM 23.3940 113.1840 11° North 269 310 8,300 -764 Descending FlightAware ADS-B
Wed 06:29:57 AM 23.4320 113.1920 11° North 258 297 8,000 -300 Descending FlightAware ADS-B
Wed 06:30:27 AM 23.4660 113.1990 11° North 237 273 8,000  Level FlightAware ADS-B
Wed 06:30:52 AM 23.4930 113.2050 12° North 209 241 8,000 -327 Level FlightAware ADS-B
Wed 06:31:22 AM 23.5170 113.2100 11° North 197 227 7,700 -900 Descending FlightAware ADS-B
Wed 06:31:52 AM 23.5470 113.2160 10° North 196 226 7,100 -1,091 Descending FlightAware ADS-B
Wed 06:32:17 AM 23.5690 113.2210 12° North 191 220 6,700 -857 Descending FlightAware ADS-B
Wed 06:32:27 AM 23.5770 113.2230 13° North 190 219 6,600 -900 Descending FlightAware ADS-B
Wed 06:32:57 AM 23.6030 113.2280 10° North 188 216 6,100 -1,067 Descending FlightAware ADS-B
Wed 06:33:12 AM 23.6160 113.2310 12° North 189 217 5,800 -1,067 Descending FlightAware ADS-B
Wed 06:33:42 AM 23.6410 113.2410 20° North 185 213 5,300 -873 Descending FlightAware ADS-B
Wed 06:34:07 AM 23.6580 113.2540 35° Northeast 186 214 5,000 -655 Descending FlightAware ADS-B
Wed 06:34:37 AM 23.6800 113.2700 34° Northeast 188 216 4,700 -667 Descending FlightAware ADS-B
Wed 06:34:52 AM 23.6890 113.2810 48° Northeast 176 203 4,500 -800 Descending FlightAware ADS-B
Wed 06:35:07 AM 23.6890 113.2930 90° East 165 190 4,300 -750 Descending FlightAware ADS-B
Wed 06:35:32 AM 23.6850 113.3120 103° East 157 181 4,000 -900 Descending FlightAware ADS-B
Wed 06:35:47 AM 23.6770 113.3210 134° Southeast 150 173 3,700 -800 Descending FlightAware ADS-B
Wed 06:36:17 AM 23.6590 113.3310 153° Southeast 147 169 3,400 -514 Descending FlightAware ADS-B
Wed 06:36:22 AM 23.6570 113.3310 180° South 146 168 3,400  Level FlightAware ADS-B
Wed 06:36:47 AM 23.6410 113.3340 170° South 146 168 3,400 -300 Level FlightAware ADS-B
Wed 06:37:22 AM 23.6130 113.3380 173° South 159 183 3,100 -300 Descending FlightAware ADS-B
Wed 06:37:47 AM 23.5970 113.3410 170° South 159 183 3,100  Level FlightAware ADS-B
Wed 06:38:07 AM 23.5800 113.3380 189° South 165 190 3,100 -240 Level FlightAware ADS-B
Wed 06:38:37 AM 23.5580 113.3330 192° South 162 186 2,900 -436 Descending FlightAware ADS-B
Wed 06:39:02 AM 23.5400 113.3270 197° South 158 182 2,700 -655 Descending FlightAware ADS-B
Wed 06:39:32 AM 23.5190 113.3220 192° South 146 168 2,300 -462 Descending FlightAware ADS-B
Wed 06:40:07 AM 23.4990 113.3170 193° South 138 159 2,200 -171 Descending FlightAware ADS-B
Wed 06:42:00 AM 23.3924 113.2988 189° South  Level Estimated

Login

Don't have an account? Register now (free) for customized features, flight alerts, and more!